Weather at Wichita Eisenhower National Airport

Public forecast

Using degrees Fahrenheit for public forecast. Weather courtesy of forecast.io.

Current aviation weather report (METAR) for Wichita Eisenhower National Airport

Retrieved 2020/09/27 06:53 UTC (57 minutes ago):

KICT 270653Z 17011KT 10SM SCT250 22/18 A2971 RMK AO2 SLP044 T02170178

Aviation forecast (TAF) for Wichita Eisenhower National Airport

Retrieved 2020/09/27 06:22 UTC (1 hour ago):

TAF KICT 270520Z 2706/2806 18014KT P6SM BKN250 FM270900 15009KT P6SM SCT120 BKN250 FM271300 12007KT P6SM BKN030 FM271500 09011KT P6SM BKN015 FM271900 03014KT P6SM BKN025 FM272000 03014G22KT P6SM VCTS BKN040CB FM280000 04012KT P6SM SCT120